createdAt,value
2019-05-30T03:50:17.379Z,5.58
2019-05-30T03:52:48.361Z,6.50
2019-05-30T03:55:21.665Z,6.20
2019-05-30T03:58:20.790Z,5.42
2019-05-30T04:00:54.992Z,4.80
2019-05-30T04:03:45.538Z,4.47
2019-05-30T04:06:31.600Z,5.20
2019-05-30T04:09:09.467Z,5.10
2019-05-30T04:11:57.728Z,4.60
2019-05-30T04:14:31.760Z,4.75
2019-05-30T04:17:02.958Z,4.87
2019-05-30T04:19:34.096Z,4.30
2019-05-30T04:22:07.211Z,3.30
2019-05-30T04:24:38.010Z,3.15
2019-05-30T04:27:09.954Z,2.70
2019-05-30T04:29:41.675Z,2.70
2019-05-30T04:32:14.308Z,2.00
2019-05-30T04:34:45.522Z,2.87
2019-05-30T04:37:17.158Z,4.40
2019-05-30T04:39:49.435Z,2.33
2019-05-30T04:42:20.926Z,1.82
2019-05-30T04:44:52.273Z,1.92
2019-05-30T04:47:23.445Z,3.45
2019-05-30T04:49:54.577Z,2.22
2019-05-30T04:52:25.719Z,2.70
2019-05-30T04:54:56.856Z,2.12
2019-05-30T04:57:27.983Z,2.67
2019-05-30T04:59:59.075Z,3.90
2019-05-30T05:02:30.211Z,3.42
2019-05-30T05:05:01.373Z,5.33
2019-05-30T05:07:32.685Z,3.80
2019-05-30T05:10:04.880Z,2.70
2019-05-30T05:12:35.927Z,2.40
2019-05-30T05:18:27.336Z,2.62
2019-05-30T05:20:59.253Z,1.92
2019-05-30T05:23:31.849Z,2.22
2019-05-30T05:26:04.047Z,2.15
2019-05-30T05:28:35.683Z,2.10
2019-05-30T05:31:06.954Z,1.67
2019-05-30T05:33:38.075Z,1.95
2019-05-30T05:36:09.189Z,1.60
2019-05-30T05:38:40.470Z,1.87
2019-05-30T05:41:11.583Z,1.72
2019-05-30T05:43:42.790Z,2.00
2019-05-30T05:46:16.929Z,1.55
2019-05-30T05:48:50.007Z,1.80
2019-05-30T05:51:24.801Z,1.67
2019-05-30T05:53:57.919Z,1.30
2019-05-30T05:56:30.529Z,1.60
2019-05-30T05:59:02.505Z,1.50
2019-05-30T06:01:34.365Z,2.80
2019-05-30T06:04:12.959Z,3.98
2019-05-30T06:06:40.334Z,2.50
2019-05-30T06:09:13.801Z,1.52
2019-05-30T06:11:49.066Z,1.60
2019-05-30T06:14:21.795Z,1.42
2019-05-30T06:16:56.209Z,3.87
2019-05-30T06:19:45.023Z,1.90
2019-05-30T06:22:03.265Z,1.50
2019-05-30T06:24:34.996Z,1.55
2019-05-30T06:27:07.792Z,1.67
2019-05-30T06:29:40.734Z,1.45
2019-05-30T06:32:13.334Z,1.92
2019-05-30T06:34:45.732Z,1.57
2019-05-30T06:37:19.225Z,2.00
2019-05-30T06:39:50.924Z,1.70
2019-05-30T06:42:23.764Z,1.70
2019-05-30T06:44:54.896Z,1.72
2019-05-30T06:47:26.301Z,1.62
2019-05-30T06:49:57.535Z,1.45
2019-05-30T06:52:29.198Z,1.80
2019-05-30T06:55:00.711Z,1.90
2019-05-30T06:57:32.141Z,1.75
2019-05-30T07:00:04.858Z,1.80
2019-05-30T07:02:36.534Z,1.35
2019-05-30T07:05:09.903Z,1.50
2019-05-30T07:07:41.703Z,2.08
2019-05-30T07:10:13.593Z,1.87
2019-05-30T07:12:45.675Z,2.05
2019-05-30T07:15:18.239Z,1.52
2019-05-30T07:17:49.384Z,1.55
2019-05-30T07:20:21.075Z,1.35
2019-05-30T07:22:52.387Z,1.50
2019-05-30T07:25:23.910Z,1.37
2019-05-30T07:27:55.043Z,1.30
2019-05-30T07:30:26.319Z,1.40
2019-05-30T07:32:57.636Z,1.40
2019-05-30T07:35:29.947Z,1.90
2019-05-30T07:38:01.257Z,1.20
2019-05-30T07:40:32.794Z,1.15
2019-05-30T07:43:11.539Z,1.67
2019-05-30T07:45:48.606Z,1.50
2019-05-30T07:48:15.562Z,1.00
2019-05-30T07:50:46.817Z,0.90
2019-05-30T07:53:17.886Z,0.85
2019-05-30T07:55:48.948Z,1.00
2019-05-30T07:58:20.068Z,1.40
2019-05-30T08:00:51.192Z,1.17
2019-05-30T08:03:22.294Z,0.80
2019-05-30T08:05:53.404Z,0.70
2019-05-30T08:08:24.589Z,0.90
2019-05-30T08:11:08.476Z,0.90
2019-05-30T08:13:29.021Z,0.72
2019-05-30T08:16:00.293Z,0.62
2019-05-30T08:18:31.700Z,0.98
2019-05-30T08:21:02.813Z,0.80
2019-05-30T08:23:34.283Z,0.80
2019-05-30T08:26:06.544Z,1.00
2019-05-30T08:28:38.671Z,1.25
2019-05-30T08:31:10.486Z,1.20
2019-05-30T08:33:42.211Z,1.00
2019-05-30T08:36:13.319Z,1.00
2019-05-30T08:38:47.982Z,1.07
2019-05-30T08:41:17.499Z,0.90
2019-05-30T08:43:48.595Z,1.00
2019-05-30T08:46:19.785Z,1.07
2019-05-30T08:48:50.920Z,1.07
2019-05-30T08:51:22.437Z,1.10
2019-05-30T08:53:53.699Z,1.27
2019-05-30T08:56:28.342Z,1.12
2019-05-30T08:58:57.628Z,1.27
2019-05-30T09:01:28.875Z,1.17
2019-05-30T09:04:00.131Z,1.40
2019-05-30T09:06:31.200Z,1.50
2019-05-30T09:09:02.324Z,1.65
2019-05-30T09:11:35.897Z,1.10
2019-05-30T09:14:08.234Z,1.30
2019-05-30T09:16:39.382Z,1.20
2019-05-30T09:19:10.504Z,1.10
2019-05-30T09:21:41.587Z,1.22
2019-05-30T09:24:12.735Z,1.20
2019-05-30T09:26:46.846Z,1.15
2019-05-30T09:29:16.845Z,1.27
2019-05-30T09:31:48.725Z,1.17
2019-05-30T09:34:20.206Z,1.42
2019-05-30T09:36:52.732Z,1.72
2019-05-30T09:39:23.857Z,1.05
2019-05-30T09:41:55.028Z,1.17
2019-05-30T09:44:26.142Z,1.20
2019-05-30T09:46:57.464Z,1.05
2019-05-30T09:49:28.573Z,1.55
2019-05-30T09:51:59.694Z,1.17
2019-05-30T09:54:30.850Z,1.40
2019-05-30T09:57:01.997Z,1.30
2019-05-30T09:59:34.336Z,1.20
2019-05-30T10:02:05.692Z,1.02
2019-05-30T10:04:36.868Z,1.20
2019-05-30T10:07:07.968Z,1.17
2019-05-30T10:09:40.944Z,1.35
2019-05-30T10:12:12.143Z,1.27
2019-05-30T10:14:45.172Z,1.10
2019-05-30T10:17:16.137Z,1.25
2019-05-30T10:19:48.703Z,1.95
2019-05-30T10:22:19.997Z,1.20
2019-05-30T10:24:51.292Z,1.10
2019-05-30T10:27:22.527Z,1.30
2019-05-30T10:29:53.689Z,1.30
2019-05-30T10:32:26.290Z,1.60
2019-05-30T10:34:57.708Z,1.10
2019-05-30T10:37:28.803Z,1.40
2019-05-30T10:39:59.984Z,1.45
2019-05-30T10:42:31.138Z,1.25
2019-05-30T10:45:02.233Z,1.40
2019-05-30T10:47:34.572Z,1.45
2019-05-30T10:50:09.566Z,1.62
2019-05-30T10:52:40.764Z,1.30
2019-05-30T10:55:12.635Z,1.50
2019-05-30T10:57:45.415Z,1.55
2019-05-30T11:00:20.446Z,1.70
2019-05-30T11:02:52.894Z,1.90
2019-05-30T11:05:25.242Z,1.32
2019-05-30T11:08:08.769Z,1.30
2019-05-30T11:10:54.757Z,1.20
2019-05-30T11:13:26.238Z,1.10
2019-05-30T11:15:57.486Z,1.22
2019-05-30T11:18:28.641Z,1.30
2019-05-30T11:20:59.801Z,1.30
2019-05-30T11:23:31.002Z,1.05
2019-05-30T11:26:02.191Z,1.62
2019-05-30T11:28:33.386Z,1.42
2019-05-30T11:31:04.970Z,1.12
2019-05-30T11:33:36.643Z,1.17
2019-05-30T11:36:07.868Z,1.45
2019-05-30T11:38:38.996Z,1.17
2019-05-30T11:41:10.283Z,1.57
2019-05-30T11:43:41.478Z,1.42
2019-05-30T11:46:12.588Z,1.12
2019-05-30T11:48:43.851Z,1.55
2019-05-30T11:51:14.972Z,1.75
2019-05-30T11:53:46.111Z,1.20
2019-05-30T11:56:17.273Z,1.70
2019-05-30T11:58:49.787Z,1.87
2019-05-30T12:05:15.775Z,1.92
2019-05-30T12:07:46.986Z,1.77
2019-05-30T12:10:20.225Z,1.77
2019-05-30T12:12:51.539Z,1.42
2019-05-30T12:15:22.972Z,1.75
2019-05-30T12:17:55.250Z,1.72
2019-05-30T12:20:26.545Z,1.32
2019-05-30T12:22:58.099Z,1.60
2019-05-30T12:25:29.303Z,1.72
2019-05-30T12:28:00.500Z,1.62
2019-05-30T12:30:31.871Z,1.62
2019-05-30T12:33:03.010Z,1.80
2019-05-30T12:35:34.147Z,1.82
2019-05-30T12:38:06.771Z,1.37
2019-05-30T12:40:38.158Z,1.80
2019-05-30T12:43:09.309Z,1.77
2019-05-30T12:45:40.509Z,1.50
2019-05-30T12:48:11.631Z,1.77
2019-05-30T12:50:42.729Z,1.72
2019-05-30T12:53:13.890Z,1.37
2019-05-30T12:55:45.361Z,1.50
2019-05-30T12:58:16.490Z,1.30
2019-05-30T13:00:48.334Z,1.70
2019-05-30T13:03:19.847Z,1.80
2019-05-30T13:05:50.997Z,1.20
2019-05-30T13:08:22.445Z,1.50
2019-05-30T13:10:53.605Z,1.30
2019-05-30T13:13:24.751Z,1.27
2019-05-30T13:15:56.529Z,1.52
2019-05-30T13:18:28.137Z,1.35
2019-05-30T13:21:00.327Z,1.45
2019-05-30T13:23:32.272Z,1.50
2019-05-30T13:26:05.931Z,1.15
2019-05-30T13:28:38.414Z,1.40
2019-05-30T13:31:09.536Z,1.25
2019-05-30T13:33:42.043Z,1.30
2019-05-30T13:36:14.401Z,1.10
2019-05-30T13:38:47.721Z,1.60
2019-05-30T13:41:42.669Z,1.20
2019-05-30T13:44:21.628Z,1.40
2019-05-30T13:46:53.988Z,1.42
2019-05-30T13:49:27.020Z,1.35
2019-05-30T13:52:00.777Z,1.12
2019-05-30T13:54:32.382Z,1.00
2019-05-30T13:57:03.761Z,1.40
2019-05-30T13:59:35.586Z,0.90
2019-05-30T14:02:08.167Z,1.12
2019-05-30T14:04:39.988Z,1.55
2019-05-30T14:07:15.621Z,1.00
2019-05-30T14:10:15.644Z,1.30
2019-05-30T14:13:00.662Z,1.20
2019-05-30T14:15:36.552Z,1.30
2019-05-30T14:18:09.086Z,1.20
2019-05-30T14:20:41.646Z,1.27
2019-05-30T14:23:15.762Z,1.12
2019-05-30T14:25:53.905Z,1.20
2019-05-30T14:28:28.580Z,1.27
2019-05-30T14:31:03.389Z,1.15
2019-05-30T14:33:35.933Z,1.52
2019-05-30T14:36:10.966Z,1.60
2019-05-30T14:38:56.773Z,1.50
2019-05-30T14:41:16.584Z,1.25
2019-05-30T14:43:49.198Z,1.22
2019-05-30T14:46:23.585Z,1.55
2019-05-30T14:48:58.070Z,2.17
2019-05-30T14:51:30.693Z,1.20
2019-05-30T14:54:02.595Z,1.00
2019-05-30T14:56:36.889Z,2.55
2019-05-30T14:59:11.151Z,1.85
2019-05-30T15:01:44.559Z,1.27
2019-05-30T15:04:17.491Z,1.27
2019-05-30T15:06:49.406Z,1.05
2019-05-30T15:09:26.176Z,1.22
2019-05-30T15:11:58.236Z,1.20
2019-05-30T15:14:29.795Z,1.15
2019-05-30T15:17:01.656Z,1.47
2019-05-30T15:19:34.304Z,1.17
2019-05-30T15:22:07.480Z,1.00
2019-05-30T15:24:39.886Z,1.07
2019-05-30T15:27:12.426Z,1.80
2019-05-30T15:29:44.259Z,1.70
2019-05-30T15:32:16.549Z,2.52
2019-05-30T15:34:49.166Z,1.25
2019-05-30T15:37:21.674Z,1.07
2019-05-30T15:39:53.236Z,1.45
2019-05-30T15:42:24.909Z,1.87
2019-05-30T15:44:57.912Z,1.55
2019-05-30T15:47:29.924Z,1.50
2019-05-30T15:50:01.666Z,1.42
2019-05-30T15:52:34.380Z,1.40
2019-05-30T15:55:09.152Z,0.95
2019-05-30T15:57:41.832Z,1.67
2019-05-30T16:03:45.266Z,2.10
2019-05-30T16:06:18.580Z,1.27
2019-05-30T16:08:51.684Z,1.30
2019-05-30T16:11:23.529Z,1.60
2019-05-30T16:13:56.233Z,3.10
2019-05-30T16:16:39.730Z,3.62
2019-05-30T16:19:15.812Z,0.90
2019-05-30T16:21:40.075Z,1.00
2019-05-30T16:24:16.611Z,1.77
2019-05-30T16:26:49.640Z,4.37
2019-05-30T16:29:21.940Z,1.62
2019-05-30T16:31:54.059Z,1.67
2019-05-30T16:34:26.484Z,2.42
2019-05-30T16:36:57.907Z,1.20
2019-05-30T16:39:29.591Z,1.72
2019-05-30T16:42:01.026Z,2.17
2019-05-30T16:44:32.158Z,1.50
2019-05-30T16:47:03.475Z,1.17
2019-05-30T16:49:34.878Z,1.00
2019-05-30T16:52:06.319Z,1.27
2019-05-30T16:54:37.616Z,1.47
2019-05-30T16:57:09.766Z,1.85
2019-05-30T16:59:42.110Z,1.57
2019-05-30T17:02:14.782Z,1.37
2019-05-30T17:04:47.900Z,1.50
2019-05-30T17:07:19.605Z,1.32
2019-05-30T17:09:51.210Z,1.40
2019-05-30T17:12:23.789Z,1.37
2019-05-30T17:14:54.995Z,1.40
2019-05-30T17:17:26.251Z,1.27
2019-05-30T17:19:57.619Z,1.40
2019-05-30T17:22:32.366Z,1.30
2019-05-30T17:25:04.010Z,1.15
2019-05-30T17:27:35.846Z,1.12
2019-05-30T17:30:12.970Z,1.40
2019-05-30T17:32:44.211Z,1.87
2019-05-30T17:35:15.450Z,1.30
2019-05-30T17:37:46.546Z,1.65
2019-05-30T17:40:18.542Z,2.00
2019-05-30T17:42:50.054Z,2.30
2019-05-30T17:45:21.522Z,2.42
2019-05-30T17:47:59.663Z,2.47
2019-05-30T17:50:27.869Z,2.08
2019-05-30T17:52:59.111Z,1.85
2019-05-30T17:55:30.237Z,2.00
2019-05-30T17:58:01.971Z,2.00
2019-05-30T18:00:33.680Z,2.80
2019-05-30T18:03:05.126Z,2.60
2019-05-30T18:05:38.458Z,1.95
2019-05-30T18:08:12.937Z,1.80
2019-05-30T18:10:53.797Z,1.80
2019-05-30T18:13:24.942Z,1.85
2019-05-30T18:15:58.943Z,1.77
2019-05-30T18:18:31.401Z,1.60
2019-05-30T18:21:03.033Z,1.77
2019-05-30T18:23:34.141Z,1.72
2019-05-30T18:26:05.457Z,1.42
2019-05-30T18:28:36.764Z,2.70
2019-05-30T18:31:08.246Z,1.77
2019-05-30T18:33:39.406Z,1.90
2019-05-30T18:36:10.544Z,1.92
2019-05-30T18:38:41.697Z,2.02
2019-05-30T18:41:16.404Z,2.02
2019-05-30T18:43:45.646Z,1.65
2019-05-30T18:46:16.788Z,1.90
2019-05-30T18:48:48.183Z,1.60
2019-05-30T18:51:19.309Z,2.47
2019-05-30T18:53:50.401Z,1.72
2019-05-30T18:56:21.488Z,2.20
2019-05-30T18:58:52.498Z,1.72
2019-05-30T19:01:23.530Z,1.80
2019-05-30T19:03:54.549Z,1.87
2019-05-30T19:06:25.739Z,1.72
2019-05-30T19:08:57.851Z,1.70
2019-05-30T19:11:33.353Z,1.57
2019-05-30T19:14:01.710Z,1.50
2019-05-30T19:16:32.813Z,1.32
2019-05-30T19:19:03.914Z,1.60
2019-05-30T19:21:36.120Z,5.37
